CAA2 weather

St. Andre-Avellin Aerodrome
St. Andre Avellin, Quebec, Canada

Public forecast

Using degrees Celsius for public forecast. Weather courtesy of forecast.io.

METAR (pilot weather report)

Closest report is Ottawa / Gatineau Airport, 24.5 nm (45.4 km) WSW. Retrieved 2019/05/20 17:21 UTC (35 minutes ago):

CYND 201721Z CCA 27013G25KT 15SM SCT040 BKN086 19/14 A2958 RMK CU4AC2 DIST SH NE QUAD PRESRR SLP018 DENSITY ALT 1100FT

TAF (pilot weather forecast)

Closest forecast is Ottawa / Gatineau Airport, 24.5 nm (45.4 km) WSW. Retrieved 2019/05/20 13:00 UTC (5 hours ago):

TAF CYND 201238Z 2013/2101 VRB03KT P6SM SCT008 BKN050 TEMPO 2013/2014 3SM BR BKN012 FM201400 23012G22KT P6SM BKN025 BKN070 TEMPO 2014/2017 BKN020 OVC070 FM201700 24018G30KT P6SM FEW025 BKN050 TEMPO 2017/2021 P6SM -SHRA RMK NXT FCST BY 201800Z